Time;durP1;ratioP1;P1;durP2;ratioP2;P2;SDS_P1;SDS_P2;PMS_P1;PMS_P2;Temp;Humidity;BMP_temperature;BMP_pressure;BME280_temperature;BME280_humidity;BME280_pressure;Samples;Min_cycle;Max_cycle;Signal;HPM_P1;HPM_P2
2022/04/11 00:02:00;;;;;;;5.35;1.75;;;5.20;99.90;;;;;;5092397;28;20404;-50
2022/04/11 00:04:26;;;;;;;4.00;1.92;;;5.20;99.90;;;;;;5090106;28;20066;-50
2022/04/11 00:06:52;;;;;;;5.57;2.00;;;5.10;99.90;;;;;;5089293;28;20039;-43
2022/04/11 00:09:18;;;;;;;5.93;2.50;;;5.10;99.90;;;;;;5089720;28;20540;-50
2022/04/11 00:11:43;;;;;;;6.45;2.10;;;5.10;99.90;;;;;;5086385;28;20086;-51
2022/04/11 00:14:09;;;;;;;6.85;2.15;;;5.10;99.90;;;;;;5086915;28;20028;-51
2022/04/11 00:16:35;;;;;;;4.20;1.80;;;5.10;99.90;;;;;;5067826;28;20071;-50
2022/04/11 00:19:00;;;;;;;4.07;1.70;;;5.10;99.90;;;;;;5089151;28;20150;-52
2022/04/11 00:21:26;;;;;;;7.60;1.90;;;5.00;99.90;;;;;;5087624;28;20074;-45
2022/04/11 00:23:52;;;;;;;4.88;1.85;;;5.00;99.90;;;;;;5088814;28;20523;-46
2022/04/11 00:26:17;;;;;;;4.53;1.73;;;5.00;99.90;;;;;;5076416;28;20459;-48
2022/04/11 00:28:43;;;;;;;5.05;1.40;;;4.90;99.90;;;;;;5089405;28;20043;-50
2022/04/11 00:31:08;;;;;;;4.07;1.48;;;4.90;99.90;;;;;;5070882;28;20125;-46
2022/04/11 00:33:34;;;;;;;4.80;1.45;;;4.90;99.90;;;;;;5088721;28;20477;-51
2022/04/11 00:36:00;;;;;;;3.30;0.98;;;4.90;99.90;;;;;;5088635;28;20075;-51
2022/04/11 00:38:25;;;;;;;4.45;1.58;;;4.90;99.90;;;;;;5070223;28;20048;-47
2022/04/11 00:40:51;;;;;;;4.60;1.80;;;4.90;99.90;;;;;;5070162;28;20030;-48
2022/04/11 00:43:33;;;;;;;3.05;1.35;;;4.90;99.90;;;;;;5093070;28;20024;-47
2022/04/11 00:45:59;;;;;;;7.63;1.77;;;4.80;99.90;;;;;;5087921;28;20041;-47
2022/04/11 00:48:25;;;;;;;3.03;1.50;;;4.80;99.90;;;;;;5087828;28;20483;-48
2022/04/11 00:50:55;;;;;;;5.55;1.70;;;4.70;99.90;;;;;;5084828;28;20115;-48
2022/04/11 00:53:22;;;;;;;4.80;1.30;;;4.70;99.90;;;;;;5089577;28;20059;-49
2022/04/11 00:55:49;;;;;;;3.95;1.55;;;4.70;99.90;;;;;;5088863;28;20043;-51
2022/04/11 00:58:16;;;;;;;4.97;1.55;;;4.60;99.90;;;;;;5088183;28;20047;-50
2022/04/11 01:00:42;;;;;;;4.65;1.50;;;4.60;99.90;;;;;;5086584;28;20024;-47
2022/04/11 01:03:08;;;;;;;2.63;1.20;;;4.60;99.90;;;;;;5089083;28;20161;-48
2022/04/11 01:05:34;;;;;;;4.80;1.52;;;4.60;99.90;;;;;;5091418;28;20518;-51
2022/04/11 01:08:06;;;;;;;3.30;1.23;;;4.50;99.90;;;;;;5080211;28;20119;-49
2022/04/11 01:10:32;;;;;;;4.90;1.60;;;4.50;99.90;;;;;;5089152;28;20036;-48
2022/04/11 01:12:58;;;;;;;3.78;1.30;;;4.50;99.90;;;;;;5086873;28;20044;-46
2022/04/11 01:15:24;;;;;;;5.45;2.42;;;4.50;99.90;;;;;;5084272;28;20039;-47
2022/04/11 01:17:50;;;;;;;4.75;1.60;;;4.50;99.90;;;;;;5088738;28;20051;-51
2022/04/11 01:20:19;;;;;;;4.82;2.22;;;4.40;99.90;;;;;;5089650;28;20435;-48
2022/04/11 01:22:46;;;;;;;2.92;1.30;;;4.40;99.90;;;;;;5089573;28;20063;-50
2022/04/11 01:25:15;;;;;;;3.45;1.33;;;4.30;99.90;;;;;;5086670;28;20500;-48
2022/04/11 01:27:42;;;;;;;5.38;1.83;;;4.30;99.90;;;;;;5094771;28;20043;-46
2022/04/11 01:30:13;;;;;;;5.90;1.48;;;4.30;99.90;;;;;;5084259;28;20044;-46
2022/04/11 01:32:39;;;;;;;3.88;1.50;;;4.30;99.90;;;;;;5069101;28;20500;-49
2022/04/11 01:35:16;;;;;;;5.72;1.58;;;4.20;99.90;;;;;;5086470;28;20032;-49
2022/04/11 01:37:42;;;;;;;3.65;1.55;;;4.20;99.90;;;;;;5085458;28;20055;-47
2022/04/11 01:40:08;;;;;;;3.92;1.38;;;4.20;99.90;;;;;;5053481;28;20040;-48
2022/04/11 01:42:34;;;;;;;4.75;1.45;;;4.20;99.90;;;;;;5083917;28;20123;-51
2022/04/11 01:45:00;;;;;;;4.00;1.50;;;4.20;99.90;;;;;;5088967;28;20453;-48
2022/04/11 01:47:25;;;;;;;4.15;1.40;;;4.10;99.90;;;;;;5087214;28;20531;-50
2022/04/11 01:49:51;;;;;;;3.08;1.17;;;4.10;99.90;;;;;;5088010;28;20484;-51
2022/04/11 01:52:16;;;;;;;2.80;1.10;;;4.10;99.90;;;;;;5087651;28;20048;-48
2022/04/11 01:54:42;;;;;;;2.03;1.05;;;4.10;99.90;;;;;;5088089;28;20035;-46
2022/04/11 01:57:08;;;;;;;4.57;1.35;;;4.10;99.90;;;;;;5085503;28;20039;-44
2022/04/11 01:59:33;;;;;;;3.75;1.33;;;4.00;99.90;;;;;;5088093;28;20036;-49
2022/04/11 02:01:59;;;;;;;3.88;1.40;;;4.00;99.90;;;;;;5089139;28;20105;-51
2022/04/11 02:04:24;;;;;;;3.53;1.27;;;4.10;99.90;;;;;;5087282;28;20488;-51
2022/04/11 02:06:50;;;;;;;4.75;1.42;;;4.10;99.90;;;;;;5088375;28;20035;-48
2022/04/11 02:09:16;;;;;;;6.57;1.45;;;4.10;99.90;;;;;;5086880;28;20076;-42
2022/04/11 02:11:41;;;;;;;6.25;1.52;;;4.10;99.90;;;;;;5088724;28;20028;-52
2022/04/11 02:14:07;;;;;;;5.35;1.48;;;4.10;99.90;;;;;;5084743;28;20473;-51
2022/04/11 02:16:33;;;;;;;2.47;1.10;;;4.10;99.90;;;;;;5084829;28;20130;-43
2022/04/11 02:18:58;;;;;;;3.47;1.17;;;4.10;99.90;;;;;;5087928;28;20500;-49
2022/04/11 02:21:24;;;;;;;2.47;1.13;;;4.10;99.90;;;;;;5088039;28;20063;-49
2022/04/11 02:23:50;;;;;;;4.43;1.27;;;4.10;99.90;;;;;;5068456;28;20074;-50
2022/04/11 02:26:15;;;;;;;4.18;1.42;;;4.10;99.90;;;;;;5089386;28;20846;-51
2022/04/11 02:28:41;;;;;;;2.83;1.10;;;4.10;99.90;;;;;;5090257;28;20039;-48
2022/04/11 02:31:06;;;;;;;3.53;1.13;;;4.00;99.90;;;;;;5087213;28;20032;-47
2022/04/11 02:33:32;;;;;;;2.42;0.90;;;4.00;99.90;;;;;;5087570;28;20101;-43
2022/04/11 02:35:58;;;;;;;4.20;1.00;;;4.00;99.90;;;;;;5086629;28;20361;-48
2022/04/11 02:38:23;;;;;;;5.63;1.20;;;3.90;99.90;;;;;;5070580;28;20056;-48
2022/04/11 02:40:49;;;;;;;2.42;1.20;;;3.90;99.90;;;;;;5071693;28;20036;-46
2022/04/11 02:43:14;;;;;;;4.05;1.20;;;3.90;99.90;;;;;;5088111;28;20047;-50
2022/04/11 02:45:40;;;;;;;2.60;0.90;;;3.80;99.90;;;;;;5086365;28;20437;-48
2022/04/11 02:48:06;;;;;;;3.65;1.13;;;3.80;99.90;;;;;;5072457;28;20055;-44
2022/04/11 02:50:32;;;;;;;21.73;3.28;;;3.80;99.90;;;;;;5071744;28;20195;-47
2022/04/11 02:52:58;;;;;;;3.45;1.20;;;3.80;99.90;;;;;;5086432;28;20043;-49
2022/04/11 02:55:23;;;;;;;4.40;1.20;;;3.80;99.90;;;;;;5070162;28;20043;-44
2022/04/11 02:57:49;;;;;;;2.30;1.10;;;3.70;99.90;;;;;;5087625;28;20024;-47
2022/04/11 03:00:15;;;;;;;1.92;1.00;;;3.70;99.90;;;;;;5086303;28;20028;-48
2022/04/11 03:02:41;;;;;;;3.53;1.42;;;3.60;99.90;;;;;;5084794;28;20115;-50
2022/04/11 03:05:07;;;;;;;2.90;1.15;;;3.60;99.90;;;;;;5085508;28;20879;-51
2022/04/11 03:07:33;;;;;;;3.97;1.42;;;3.60;99.90;;;;;;5070470;28;20356;-48
2022/04/11 03:09:59;;;;;;;2.65;1.08;;;3.60;99.90;;;;;;5069350;28;20036;-49
2022/04/11 03:12:27;;;;;;;6.10;1.27;;;3.60;99.90;;;;;;5066867;28;20134;-48
2022/04/11 03:14:53;;;;;;;3.33;1.50;;;3.60;99.90;;;;;;5085254;28;20420;-51
2022/04/11 03:17:19;;;;;;;4.90;1.58;;;3.50;99.90;;;;;;5081092;28;20051;-47
2022/04/11 03:19:45;;;;;;;2.33;1.13;;;3.50;99.90;;;;;;5080167;28;20036;-45
2022/04/11 03:22:11;;;;;;;3.58;1.10;;;3.50;99.90;;;;;;5079024;28;20024;-50
2022/04/11 03:24:37;;;;;;;4.80;1.30;;;3.50;99.90;;;;;;5063032;28;20396;-44
2022/04/11 03:27:03;;;;;;;4.10;1.10;;;3.40;99.90;;;;;;5067043;28;20404;-45
2022/04/11 03:29:30;;;;;;;3.83;1.25;;;3.40;99.90;;;;;;5081065;28;20040;-46
2022/04/11 03:31:56;;;;;;;6.05;1.17;;;3.40;99.90;;;;;;5085229;28;20039;-47
2022/04/11 03:34:21;;;;;;;4.18;1.30;;;3.40;99.90;;;;;;5092002;28;20039;-45
2022/04/11 03:36:47;;;;;;;4.97;1.58;;;3.40;99.90;;;;;;5092718;28;20032;-54
2022/04/11 03:39:14;;;;;;;6.28;1.25;;;3.40;99.90;;;;;;5087912;28;20070;-50
2022/04/11 03:41:43;;;;;;;5.35;1.50;;;3.30;99.90;;;;;;5090214;28;20032;-49
2022/04/11 03:44:10;;;;;;;4.95;1.50;;;3.30;99.90;;;;;;5091436;28;20055;-51
2022/04/11 03:46:39;;;;;;;4.25;1.40;;;3.30;99.90;;;;;;5075361;28;20063;-54
2022/04/11 03:49:06;;;;;;;4.90;1.52;;;3.30;99.90;;;;;;5088368;28;20057;-47
2022/04/11 03:51:32;;;;;;;5.13;1.70;;;3.30;99.90;;;;;;5090943;28;20032;-49
2022/04/11 03:53:58;;;;;;;6.00;1.85;;;3.40;99.90;;;;;;5071251;28;20108;-44
2022/04/11 03:56:24;;;;;;;4.88;1.33;;;3.40;99.90;;;;;;5089510;28;20136;-46
2022/04/11 03:58:49;;;;;;;4.40;1.88;;;3.50;99.90;;;;;;5089969;28;20044;-53
2022/04/11 04:01:15;;;;;;;3.85;1.40;;;3.50;99.90;;;;;;5091067;28;20039;-51
2022/04/11 04:03:41;;;;;;;3.15;1.45;;;3.50;99.90;;;;;;5090489;28;20028;-49
2022/04/11 04:06:07;;;;;;;5.53;1.90;;;3.60;99.90;;;;;;5091478;28;20036;-49
2022/04/11 04:08:33;;;;;;;3.85;1.77;;;3.60;99.90;;;;;;5089947;28;20066;-49
2022/04/11 04:10:59;;;;;;;3.78;1.67;;;3.60;99.90;;;;;;5089510;28;20040;-53
2022/04/11 04:13:24;;;;;;;4.60;1.63;;;3.70;99.90;;;;;;5088302;28;20040;-47
2022/04/11 04:15:50;;;;;;;5.57;1.83;;;3.70;99.90;;;;;;5090173;28;20039;-50
2022/04/11 04:18:16;;;;;;;8.80;2.17;;;3.80;99.90;;;;;;5086134;28;20135;-48
2022/04/11 04:20:42;;;;;;;4.38;2.22;;;3.80;99.90;;;;;;5085165;28;20084;-51
2022/04/11 04:23:08;;;;;;;8.60;1.85;;;3.80;99.90;;;;;;5090549;28;20459;-51
2022/04/11 04:25:34;;;;;;;7.10;2.22;;;3.90;99.90;;;;;;5089812;28;20086;-50
2022/04/11 04:28:01;;;;;;;5.60;2.08;;;3.90;99.90;;;;;;5089768;28;20040;-48
2022/04/11 04:30:28;;;;;;;4.78;2.55;;;4.00;99.90;;;;;;5090675;28;20523;-48
2022/04/11 04:32:55;;;;;;;4.60;2.17;;;4.00;99.90;;;;;;5069377;28;20039;-46
2022/04/11 04:35:21;;;;;;;4.22;2.03;;;4.00;99.90;;;;;;5086812;28;20051;-50
2022/04/11 04:37:47;;;;;;;5.10;2.20;;;4.00;99.90;;;;;;5089558;28;20040;-51
2022/04/11 04:40:12;;;;;;;5.13;1.92;;;4.00;99.90;;;;;;5089593;28;20032;-45
2022/04/11 04:42:39;;;;;;;7.90;3.25;;;4.00;99.90;;;;;;5090236;28;20549;-51
2022/04/11 04:45:08;;;;;;;6.38;2.45;;;4.00;99.90;;;;;;5071965;28;20421;-47
2022/04/11 04:47:33;;;;;;;5.93;2.42;;;4.00;99.90;;;;;;5088156;28;20558;-46
2022/04/11 04:49:59;;;;;;;5.25;1.77;;;4.10;99.90;;;;;;5085110;28;20040;-53
2022/04/11 04:52:25;;;;;;;7.43;2.50;;;4.10;99.90;;;;;;5090644;28;20040;-45
2022/04/11 04:54:50;;;;;;;4.72;2.10;;;4.10;99.90;;;;;;5093942;28;20039;-48
2022/04/11 04:57:16;;;;;;;7.50;2.60;;;4.10;99.90;;;;;;5070159;28;20044;-50
2022/04/11 04:59:42;;;;;;;4.90;2.47;;;4.10;99.90;;;;;;5090074;28;20047;-50
2022/04/11 05:02:07;;;;;;;6.38;2.25;;;4.10;99.90;;;;;;5088155;28;20030;-46
2022/04/11 05:04:34;;;;;;;6.45;2.78;;;4.10;99.90;;;;;;5089868;28;20467;-50
2022/04/11 05:07:00;;;;;;;6.03;2.30;;;4.10;99.90;;;;;;5090321;28;20146;-45
2022/04/11 05:09:25;;;;;;;8.95;2.75;;;4.20;99.90;;;;;;5089641;28;20062;-47
2022/04/11 05:11:51;;;;;;;6.95;2.67;;;4.20;99.90;;;;;;5072751;28;20028;-51
2022/04/11 05:14:17;;;;;;;7.78;3.00;;;4.30;99.90;;;;;;5087072;28;20180;-51
2022/04/11 05:16:43;;;;;;;6.05;2.88;;;4.20;99.90;;;;;;5070268;28;20081;-43
2022/04/11 05:19:09;;;;;;;3.75;2.20;;;4.20;99.90;;;;;;5068732;28;20044;-49
2022/04/11 05:21:34;;;;;;;5.43;1.80;;;4.20;99.90;;;;;;5054427;28;20135;-51
2022/04/11 05:24:00;;;;;;;5.97;2.30;;;4.30;99.90;;;;;;5089992;28;20039;-45
2022/04/11 05:26:26;;;;;;;5.05;2.08;;;4.30;99.90;;;;;;5085300;28;20043;-49
2022/04/11 05:28:52;;;;;;;5.25;2.40;;;4.30;99.90;;;;;;5068752;28;20048;-50
2022/04/11 05:31:18;;;;;;;5.55;2.28;;;4.30;99.90;;;;;;5089104;28;20400;-47
2022/04/11 05:33:44;;;;;;;6.82;3.10;;;4.30;99.90;;;;;;5086871;28;20032;-50
2022/04/11 05:36:10;;;;;;;4.88;2.40;;;4.40;99.90;;;;;;5087796;28;20036;-46
2022/04/11 05:38:36;;;;;;;6.18;2.38;;;4.40;99.90;;;;;;5081983;28;20515;-48
2022/04/11 05:41:01;;;;;;;4.85;2.00;;;4.40;99.90;;;;;;5096364;28;20054;-51
2022/04/11 05:43:27;;;;;;;7.13;3.22;;;4.40;99.90;;;;;;5093792;28;20085;-51
2022/04/11 05:45:53;;;;;;;7.30;3.03;;;4.40;99.90;;;;;;5088821;28;20032;-51
2022/04/11 05:48:19;;;;;;;7.30;2.70;;;4.50;99.90;;;;;;5087196;28;20035;-48
2022/04/11 05:50:45;;;;;;;4.88;2.67;;;4.50;99.90;;;;;;5086880;28;20479;-51
2022/04/11 05:53:10;;;;;;;4.18;2.17;;;4.50;99.90;;;;;;5082873;28;20044;-50
2022/04/11 05:55:36;;;;;;;5.65;2.55;;;4.50;99.90;;;;;;5072080;28;20492;-51
2022/04/11 05:58:01;;;;;;;4.90;2.22;;;4.50;99.90;;;;;;5071169;28;20043;-51
2022/04/11 06:00:27;;;;;;;5.78;2.42;;;4.50;99.90;;;;;;5090404;28;20135;-50
2022/04/11 06:02:53;;;;;;;5.65;2.40;;;4.50;99.90;;;;;;5091429;28;20055;-48
2022/04/11 06:05:19;;;;;;;6.18;2.38;;;4.60;99.90;;;;;;5090255;28;20028;-51
2022/04/11 06:07:45;;;;;;;4.88;2.47;;;4.60;99.90;;;;;;5090550;28;20036;-49
2022/04/11 06:10:11;;;;;;;5.90;2.10;;;4.70;99.90;;;;;;5065082;28;20043;-45
2022/04/11 06:12:37;;;;;;;6.18;2.20;;;4.70;99.90;;;;;;5092915;28;20050;-48
2022/04/11 06:15:04;;;;;;;4.95;2.10;;;4.80;99.90;;;;;;5093191;28;20093;-48
2022/04/11 06:17:30;;;;;;;7.05;2.45;;;4.80;99.90;;;;;;5087382;28;20528;-45
2022/04/11 06:19:59;;;;;;;5.68;2.53;;;4.90;99.90;;;;;;5083151;28;20492;-48
2022/04/11 06:22:25;;;;;;;7.47;3.17;;;4.90;99.90;;;;;;5087450;28;20032;-48
2022/04/11 06:24:58;;;;;;;9.65;2.97;;;5.00;99.90;;;;;;5085525;28;20036;-48
2022/04/11 06:27:23;;;;;;;5.63;2.45;;;5.10;99.90;;;;;;5088142;28;20520;-50
2022/04/11 06:29:56;;;;;;;4.32;2.33;;;5.10;99.90;;;;;;5087724;28;20070;-44
2022/04/11 06:32:29;;;;;;;5.05;2.40;;;5.10;99.90;;;;;;5085568;28;20036;-50
2022/04/11 06:34:55;;;;;;;5.82;2.58;;;5.20;99.90;;;;;;5085894;28;20028;-42
2022/04/11 06:37:24;;;;;;;6.95;2.38;;;5.30;99.90;;;;;;5088769;28;20044;-44
2022/04/11 06:39:50;;;;;;;3.67;1.98;;;5.40;99.90;;;;;;5087452;28;20036;-49
2022/04/11 06:42:16;;;;;;;3.60;2.25;;;5.40;99.90;;;;;;5088556;28;20082;-47
2022/04/11 06:44:41;;;;;;;6.50;2.35;;;5.50;99.90;;;;;;5086846;28;20075;-50
2022/04/11 06:47:08;;;;;;;6.20;2.90;;;5.50;99.90;;;;;;5085698;28;20138;-46
2022/04/11 06:49:37;;;;;;;7.05;2.95;;;5.50;99.90;;;;;;5082531;28;20492;-47
2022/04/11 06:52:04;;;;;;;6.78;2.45;;;5.60;99.90;;;;;;5087299;28;20074;-48
2022/04/11 06:54:32;;;;;;;6.18;2.97;;;5.70;99.90;;;;;;5087442;28;20043;-44
2022/04/11 06:56:58;;;;;;;9.27;3.13;;;5.70;99.90;;;;;;5088233;28;20074;-47
2022/04/11 06:59:24;;;;;;;5.10;2.83;;;5.80;99.90;;;;;;5085011;28;20028;-51
2022/04/11 07:01:53;;;;;;;4.85;2.83;;;5.90;99.90;;;;;;5088648;28;20298;-46
2022/04/11 07:04:20;;;;;;;6.85;2.42;;;6.00;99.90;;;;;;5090298;28;20147;-50
2022/04/11 07:06:46;;;;;;;5.00;2.15;;;6.20;99.90;;;;;;5078480;28;20121;-46
2022/04/11 07:09:12;;;;;;;4.45;2.45;;;6.30;99.90;;;;;;5086940;28;20483;-47
2022/04/11 07:11:38;;;;;;;5.45;2.22;;;6.40;99.90;;;;;;5090000;28;20079;-51
2022/04/11 07:14:05;;;;;;;6.60;3.08;;;6.50;99.90;;;;;;5090030;28;20465;-44
2022/04/11 07:16:31;;;;;;;5.47;2.70;;;6.50;99.90;;;;;;5087673;28;20032;-45
2022/04/11 07:18:56;;;;;;;5.93;2.90;;;6.60;99.90;;;;;;5090937;28;20067;-51
2022/04/11 07:21:22;;;;;;;5.38;3.25;;;6.70;99.90;;;;;;5090833;28;20048;-49
2022/04/11 07:23:48;;;;;;;6.20;2.40;;;6.80;99.90;;;;;;5087974;28;20099;-50
2022/04/11 07:26:14;;;;;;;6.88;3.10;;;6.80;99.90;;;;;;5094700;28;20036;-47
2022/04/11 07:28:40;;;;;;;5.88;3.20;;;6.90;99.90;;;;;;5089989;28;20097;-47
2022/04/11 07:31:05;;;;;;;6.18;2.78;;;7.10;99.90;;;;;;5073271;28;20047;-50
2022/04/11 07:33:31;;;;;;;6.80;3.83;;;7.20;99.90;;;;;;5092655;28;20040;-47
2022/04/11 07:35:57;;;;;;;6.80;2.97;;;7.30;99.90;;;;;;5072552;28;20137;-50
2022/04/11 07:38:22;;;;;;;4.75;2.95;;;7.40;99.90;;;;;;5092646;28;20071;-48
2022/04/11 07:40:49;;;;;;;5.68;3.13;;;7.60;99.90;;;;;;5094839;28;20036;-51
2022/04/11 07:43:16;;;;;;;8.20;2.90;;;7.70;99.90;;;;;;5090020;28;20032;-48
2022/04/11 07:45:42;;;;;;;6.43;3.30;;;7.90;99.20;;;;;;5088898;28;20139;-48
2022/04/11 07:48:09;;;;;;;7.57;3.60;;;8.00;98.60;;;;;;5095630;28;20044;-51
2022/04/11 07:50:34;;;;;;;8.63;3.40;;;8.10;98.10;;;;;;5093746;28;20040;-46
2022/04/11 07:53:00;;;;;;;6.70;2.78;;;8.20;98.00;;;;;;5087249;28;20093;-51
2022/04/11 07:55:26;;;;;;;7.40;3.53;;;8.30;97.40;;;;;;5090885;28;20052;-45
2022/04/11 07:57:53;;;;;;;5.70;3.17;;;8.40;97.40;;;;;;5065072;28;20035;-50
2022/04/11 08:00:20;;;;;;;5.13;3.20;;;8.40;97.00;;;;;;5085400;28;20036;-50
2022/04/11 08:02:49;;;;;;;6.47;3.47;;;8.50;96.40;;;;;;5095829;28;20114;-50
2022/04/11 08:05:19;;;;;;;7.20;3.80;;;8.60;95.30;;;;;;5091758;28;20043;-47
2022/04/11 08:07:44;;;;;;;6.00;3.70;;;8.70;94.80;;;;;;5068839;28;20476;-50
2022/04/11 08:10:10;;;;;;;6.13;3.72;;;8.80;94.60;;;;;;5090267;28;20043;-49
2022/04/11 08:12:35;;;;;;;7.82;3.47;;;8.90;94.20;;;;;;5088959;28;20060;-45
2022/04/11 08:15:01;;;;;;;5.07;3.50;;;9.00;93.20;;;;;;5080679;28;20032;-43
2022/04/11 08:17:27;;;;;;;5.72;2.90;;;9.10;93.10;;;;;;5083749;28;20044;-49
2022/04/11 08:19:53;;;;;;;5.50;3.25;;;9.20;92.80;;;;;;5090786;28;20123;-46
2022/04/11 08:22:18;;;;;;;6.82;3.80;;;9.30;92.10;;;;;;5083629;28;20067;-50
2022/04/11 08:24:44;;;;;;;6.03;3.20;;;9.40;91.20;;;;;;5070604;28;20036;-50
2022/04/11 08:27:10;;;;;;;5.03;3.38;;;9.50;90.00;;;;;;5091310;28;20036;-51
2022/04/11 08:29:36;;;;;;;8.90;3.83;;;9.60;89.20;;;;;;5090298;28;20032;-51
2022/04/11 08:32:02;;;;;;;6.97;3.95;;;9.70;89.30;;;;;;5087939;28;20464;-47
2022/04/11 08:34:27;;;;;;;6.15;3.78;;;9.70;86.80;;;;;;5093981;28;20449;-50
2022/04/11 08:36:53;;;;;;;8.15;3.38;;;9.80;87.10;;;;;;5090737;28;20120;-49
2022/04/11 08:39:19;;;;;;;6.85;3.50;;;9.90;86.30;;;;;;5083542;28;20067;-46
2022/04/11 08:41:44;;;;;;;8.07;3.38;;;9.90;86.10;;;;;;5091767;28;20039;-47
2022/04/11 08:44:12;;;;;;;6.13;3.55;;;10.00;85.40;;;;;;5087732;28;20168;-48
2022/04/11 08:46:38;;;;;;;5.53;3.20;;;10.10;84.40;;;;;;5089136;28;20036;-49
2022/04/11 08:49:06;;;;;;;6.85;4.10;;;10.20;84.50;;;;;;5081917;28;20560;-50
2022/04/11 08:51:33;;;;;;;6.35;3.28;;;10.30;82.70;;;;;;5086225;28;20036;-49
2022/04/11 08:54:01;;;;;;;4.45;2.90;;;10.30;82.60;;;;;;5087272;28;20488;-49
2022/04/11 08:56:28;;;;;;;5.35;3.50;;;10.40;80.50;;;;;;5087492;28;20032;-46
2022/04/11 08:58:54;;;;;;;5.88;3.30;;;10.50;80.70;;;;;;5090430;28;20478;-51
2022/04/11 09:01:20;;;;;;;5.45;3.75;;;10.60;80.00;;;;;;5087995;28;20067;-51
2022/04/11 09:03:46;;;;;;;6.68;3.60;;;10.60;78.00;;;;;;5088569;28;20109;-47
2022/04/11 09:06:15;;;;;;;6.20;3.92;;;10.70;77.40;;;;;;5084818;28;20028;-46
2022/04/11 09:08:51;;;;;;;7.53;3.67;;;10.70;77.70;;;;;;5083873;28;20052;-46
2022/04/11 09:11:37;;;;;;;6.63;3.83;;;10.80;75.70;;;;;;5084219;28;20141;-46
2022/04/11 09:14:08;;;;;;;6.80;4.30;;;10.90;74.90;;;;;;5080962;28;20118;-46
2022/04/11 09:16:53;;;;;;;6.50;3.97;;;10.90;74.70;;;;;;5065222;28;20436;-47
2022/04/11 09:19:21;;;;;;;8.00;3.97;;;11.00;71.50;;;;;;5090063;28;20052;-49
2022/04/11 09:21:47;;;;;;;6.28;4.20;;;11.10;75.10;;;;;;5089805;28;20040;-49
2022/04/11 09:24:19;;;;;;;5.38;3.17;;;11.20;72.60;;;;;;5088627;28;20055;-47
2022/04/11 09:26:46;;;;;;;6.22;3.67;;;11.30;72.40;;;;;;5070875;28;20157;-47
2022/04/11 09:29:12;;;;;;;7.25;3.88;;;11.40;71.40;;;;;;5088396;28;20120;-48
2022/04/11 09:31:38;;;;;;;8.63;3.80;;;11.50;70.90;;;;;;5068788;28;20039;-51
2022/04/11 09:34:27;;;;;;;6.95;3.72;;;11.50;71.30;;;;;;5085308;28;20047;-48
2022/04/11 09:36:58;;;;;;;8.27;3.70;;;11.70;68.90;;;;;;5086552;28;20476;-51
2022/04/11 09:39:25;;;;;;;6.03;3.33;;;11.70;69.80;;;;;;5087544;28;20085;-47
2022/04/11 09:41:52;;;;;;;5.88;3.47;;;11.80;67.00;;;;;;5088580;28;20115;-50
2022/04/11 09:44:23;;;;;;;6.05;3.72;;;11.80;65.80;;;;;;5086975;28;20080;-54
2022/04/11 09:47:00;;;;;;;7.43;3.60;;;11.90;66.90;;;;;;5088643;28;20035;-48
2022/04/11 09:49:27;;;;;;;9.18;3.72;;;12.00;67.20;;;;;;5089930;28;20544;-49
2022/04/11 09:52:12;;;;;;;5.40;3.88;;;12.10;67.00;;;;;;5087028;28;20040;-47
2022/04/11 09:54:45;;;;;;;6.60;3.50;;;12.30;64.50;;;;;;5066355;28;20105;-46
2022/04/11 09:57:13;;;;;;;6.25;3.88;;;12.40;65.40;;;;;;5082717;28;20138;-50
2022/04/11 09:59:39;;;;;;;7.57;3.53;;;12.50;65.20;;;;;;5087205;28;20496;-47
2022/04/11 10:02:06;;;;;;;6.68;4.10;;;12.50;62.40;;;;;;5093008;28;20032;-49
2022/04/11 10:04:32;;;;;;;7.68;3.78;;;12.60;62.70;;;;;;5085137;28;20032;-48
2022/04/11 10:06:59;;;;;;;5.97;3.55;;;12.60;61.90;;;;;;5068191;28;20050;-50
2022/04/11 10:09:24;;;;;;;6.65;3.70;;;12.70;62.40;;;;;;5085533;28;20063;-50
2022/04/11 10:11:54;;;;;;;6.38;3.72;;;12.80;61.40;;;;;;5089052;28;20137;-45
2022/04/11 10:14:27;;;;;;;7.63;3.85;;;12.90;60.90;;;;;;5085072;28;20032;-49
2022/04/11 10:17:00;;;;;;;6.05;4.22;;;13.00;60.70;;;;;;5065352;28;20043;-44
2022/04/11 10:19:29;;;;;;;5.47;3.63;;;13.20;60.90;;;;;;5061695;28;20123;-49
2022/04/11 10:21:57;;;;;;;5.18;3.67;;;13.30;59.90;;;;;;5065076;28;20123;-50
2022/04/11 10:24:34;;;;;;;4.88;3.60;;;13.30;60.50;;;;;;5067627;28;20049;-50
2022/04/11 10:27:23;;;;;;;6.60;3.92;;;13.40;59.60;;;;;;5065346;28;20051;-48
2022/04/11 10:29:51;;;;;;;6.40;4.20;;;13.50;58.80;;;;;;5063415;28;20044;-48
2022/04/11 10:32:22;;;;;;;7.10;4.45;;;13.50;58.40;;;;;;5059968;28;20069;-50
2022/04/11 10:35:05;;;;;;;9.00;4.13;;;13.60;56.90;;;;;;5064359;28;20487;-50
2022/04/11 10:37:40;;;;;;;7.55;4.05;;;13.60;56.90;;;;;;5071338;28;20040;-48
2022/04/11 10:40:26;;;;;;;7.75;3.78;;;13.70;57.00;;;;;;5073411;28;20037;-51
2022/04/11 10:43:01;;;;;;;5.50;3.78;;;13.80;57.00;;;;;;5066667;28;20079;-49
2022/04/11 10:45:57;;;;;;;7.20;4.28;;;13.80;56.00;;;;;;5069386;28;20149;-51
2022/04/11 10:48:55;;;;;;;6.40;3.85;;;13.80;53.10;;;;;;5069057;28;20117;-46
2022/04/11 10:51:20;;;;;;;6.57;3.65;;;13.80;54.20;;;;;;5070256;28;20075;-48
2022/04/11 10:54:17;;;;;;;8.05;3.90;;;13.90;55.30;;;;;;5070150;28;20450;-45
2022/04/11 10:56:53;;;;;;;6.90;4.18;;;14.00;54.70;;;;;;5070666;28;20051;-44
2022/04/11 10:59:48;;;;;;;5.85;4.00;;;14.00;54.10;;;;;;5070290;28;20155;-47
2022/04/11 11:02:15;;;;;;;6.93;4.07;;;14.00;53.90;;;;;;5067788;28;20493;-50
2022/04/11 11:04:42;;;;;;;9.52;4.32;;;14.10;54.10;;;;;;5067113;28;20079;-46
2022/04/11 11:07:24;;;;;;;5.63;3.72;;;14.20;53.30;;;;;;5089225;28;20111;-43
2022/04/11 11:09:58;;;;;;;10.00;4.63;;;14.30;53.00;;;;;;5069683;28;20036;-44
2022/04/11 11:12:24;;;;;;;8.50;4.68;;;14.50;52.10;;;;;;5056754;28;20045;-48
2022/04/11 11:14:50;;;;;;;8.98;4.78;;;14.50;50.80;;;;;;5070040;28;20044;-50
2022/04/11 11:17:15;;;;;;;7.43;4.60;;;14.60;52.50;;;;;;5069525;28;20040;-50
2022/04/11 11:20:13;;;;;;;6.88;4.78;;;14.80;52.80;;;;;;5095182;28;20564;-48
2022/04/11 11:23:16;;;;;;;7.93;5.03;;;14.90;50.50;;;;;;5070754;28;20074;-48
2022/04/11 11:25:42;;;;;;;8.57;5.38;;;15.00;51.50;;;;;;5093867;28;20031;-50
2022/04/11 11:28:12;;;;;;;10.68;5.40;;;15.10;52.20;;;;;;5073769;28;20043;-48
2022/04/11 11:30:38;;;;;;;8.48;5.25;;;15.20;52.00;;;;;;5085571;28;20036;-52
2022/04/11 11:33:06;;;;;;;8.18;5.07;;;15.30;52.60;;;;;;5085599;28;20238;-45
2022/04/11 11:35:32;;;;;;;7.55;4.82;;;15.30;51.30;;;;;;5092650;28;20036;-52
2022/04/11 11:38:05;;;;;;;7.57;5.50;;;15.30;50.40;;;;;;5087663;28;20032;-44
2022/04/11 11:40:31;;;;;;;;;;;15.30;49.90;;;;;;5089157;28;20036;-47
2022/04/11 11:42:57;;;;;;;7.43;4.93;;;15.30;48.70;;;;;;5090549;28;19924;-51
2022/04/11 11:45:27;;;;;;;7.82;5.07;;;15.30;50.90;;;;;;5088589;28;20040;-51
2022/04/11 11:47:52;;;;;;;8.23;5.70;;;15.40;51.20;;;;;;5093020;28;20172;-50
2022/04/11 11:50:18;;;;;;;9.57;5.85;;;15.50;51.50;;;;;;5087934;28;20124;-45
2022/04/11 11:52:57;;;;;;;8.18;5.20;;;15.70;51.30;;;;;;5073913;28;20050;-50
2022/04/11 11:55:23;;;;;;;8.07;5.50;;;15.70;50.20;;;;;;5087739;28;20048;-46
2022/04/11 11:58:02;;;;;;;6.78;5.30;;;15.80;50.80;;;;;;5089067;28;20500;-49
2022/04/11 12:00:34;;;;;;;9.15;5.65;;;15.90;51.20;;;;;;5091491;28;20173;-49
2022/04/11 12:05:57;;;;;;;8.95;6.03;;;16.10;50.00;;;;;;5015780;28;20507;-46
2022/04/11 12:08:23;;;;;;;9.65;6.75;;;16.20;50.00;;;;;;5091724;28;20040;-50
2022/04/11 12:10:52;;;;;;;8.35;5.85;;;16.20;49.70;;;;;;5073633;28;20507;-48
2022/04/11 12:13:22;;;;;;;10.88;6.15;;;16.30;48.40;;;;;;5089247;28;20176;-50
2022/04/11 12:15:48;;;;;;;7.88;6.03;;;16.30;48.80;;;;;;5089747;28;20039;-45
2022/04/11 12:18:15;;;;;;;7.15;5.43;;;16.40;48.80;;;;;;5090259;28;20389;-45
2022/04/11 12:20:43;;;;;;;7.55;5.75;;;16.50;48.20;;;;;;5088443;28;20055;-46
2022/04/11 12:23:11;;;;;;;10.02;6.20;;;16.60;47.60;;;;;;5094869;28;20557;-48
2022/04/11 12:25:50;;;;;;;11.80;6.22;;;16.70;47.10;;;;;;5087542;28;20040;-50
2022/04/11 12:28:20;;;;;;;7.18;5.70;;;16.80;46.50;;;;;;5085981;28;20040;-49
2022/04/11 12:31:12;;;;;;;9.20;5.93;;;17.00;47.60;;;;;;5092753;28;20110;-51
2022/04/11 12:33:46;;;;;;;10.48;5.63;;;17.10;45.30;;;;;;5101075;28;20043;-51
2022/04/11 12:36:16;;;;;;;8.23;6.28;;;17.30;46.70;;;;;;5070223;28;20040;-51
2022/04/11 12:39:11;;;;;;;8.90;6.07;;;17.50;45.80;;;;;;5089037;28;20076;-49
2022/04/11 12:41:48;;;;;;;7.90;5.70;;;17.60;43.60;;;;;;5092742;28;20036;-44
2022/04/11 12:44:19;;;;;;;7.60;5.80;;;17.60;44.60;;;;;;5089291;28;20043;-47
2022/04/11 12:47:00;;;;;;;8.45;6.20;;;17.70;44.80;;;;;;5089789;28;20089;-51
2022/04/11 12:50:05;;;;;;;8.35;4.88;;;17.80;44.60;;;;;;5088850;28;20373;-50
2022/04/11 12:52:30;;;;;;;6.97;5.13;;;18.00;45.10;;;;;;4992750;28;20140;-49
2022/04/11 12:54:59;;;;;;;8.60;5.50;;;18.10;45.50;;;;;;4991972;28;20038;-49
2022/04/11 12:57:27;;;;;;;10.43;6.75;;;18.10;45.30;;;;;;5035541;28;20048;-47
2022/04/11 12:59:54;;;;;;;9.07;6.32;;;18.00;42.80;;;;;;5089283;28;20119;-46
2022/04/11 13:02:22;;;;;;;8.50;5.72;;;18.10;43.40;;;;;;5096014;28;20032;-40